createdAt,value
2023-01-19T00:02:55.142Z,98702.38
2023-01-19T00:05:57.828Z,98716.19
2023-01-19T00:09:00.203Z,98678.22
2023-01-19T00:12:02.888Z,98711.84
2023-01-19T00:15:06.090Z,98710.22
2023-01-19T00:18:10.631Z,98715.38
2023-01-19T00:21:16.941Z,98671.88
2023-01-19T00:24:19.680Z,98698.94
2023-01-19T00:27:22.105Z,98717.06
2023-01-19T00:30:24.915Z,98701.44
2023-01-19T00:33:27.296Z,98711.91
2023-01-19T00:36:30.026Z,98698.53
2023-01-19T00:39:32.347Z,98696.50
2023-01-19T00:42:40.745Z,98672.53
2023-01-19T00:45:43.203Z,98670.06
2023-01-19T00:48:45.845Z,98712.34
2023-01-19T00:51:48.160Z,98704.50
2023-01-19T00:54:51.024Z,98711.13
2023-01-19T00:57:53.320Z,98698.59
2023-01-19T01:00:57.496Z,98706.03
2023-01-19T01:03:59.958Z,98694.34
2023-01-19T01:07:02.822Z,98692.69
2023-01-19T01:10:05.515Z,98660.72
2023-01-19T01:13:19.899Z,98686.94
2023-01-19T01:16:25.018Z,98681.81
2023-01-19T01:19:27.682Z,98680.34
2023-01-19T01:22:30.728Z,98680.19
2023-01-19T01:25:37.448Z,98681.63
2023-01-19T01:28:39.812Z,98654.34
2023-01-19T01:31:42.436Z,98699.47
2023-01-19T01:34:44.796Z,98660.94
2023-01-19T01:37:47.506Z,98688.00
2023-01-19T01:40:50.171Z,98647.19
2023-01-19T01:43:58.283Z,98685.16
2023-01-19T01:47:01.285Z,98684.94
2023-01-19T01:50:27.970Z,98662.16
2023-01-19T01:53:32.968Z,98699.31
2023-01-19T01:56:59.533Z,98688.22
2023-01-19T02:00:03.646Z,98699.31
2023-01-19T02:03:07.461Z,98668.13
2023-01-19T02:06:10.526Z,98721.28
2023-01-19T02:09:31.630Z,98730.97
2023-01-19T02:12:53.160Z,98734.22
2023-01-19T02:16:00.091Z,98702.66
2023-01-19T02:19:04.067Z,98712.66
2023-01-19T02:22:19.045Z,98677.97
2023-01-19T02:25:22.082Z,98671.41
2023-01-19T02:28:26.168Z,98678.59
2023-01-19T02:31:31.282Z,98703.22
2023-01-19T02:34:33.907Z,98719.25
2023-01-19T02:37:40.190Z,98735.06
2023-01-19T02:40:43.544Z,98713.28
2023-01-19T02:43:49.234Z,98704.03
2023-01-19T02:46:54.389Z,98695.44
2023-01-19T02:49:57.932Z,98688.25
2023-01-19T02:53:21.849Z,98686.81
2023-01-19T02:56:30.143Z,98656.44
2023-01-19T02:59:50.743Z,98687.03
2023-01-19T03:03:16.404Z,98705.91
2023-01-19T03:07:07.589Z,98701.81
2023-01-19T03:10:24.186Z,98685.41
2023-01-19T03:14:02.072Z,98706.72
2023-01-19T03:17:08.080Z,98704.69
2023-01-19T03:20:14.046Z,98725.22
2023-01-19T03:23:18.538Z,98728.91
2023-01-19T03:26:26.530Z,98738.16
2023-01-19T03:29:34.870Z,98715.59
2023-01-19T03:32:48.354Z,98689.50
2023-01-19T03:35:56.960Z,98690.13
2023-01-19T03:39:02.479Z,98685.59
2023-01-19T03:42:08.485Z,98627.34
2023-01-19T03:45:14.003Z,98652.56
2023-01-19T03:48:17.309Z,98650.94
2023-01-19T03:51:20.438Z,98659.13
2023-01-19T03:54:23.479Z,98644.59
2023-01-19T03:57:26.135Z,98678.84
2023-01-19T04:00:29.105Z,98640.69
2023-01-19T04:03:31.732Z,98651.13
2023-01-19T04:06:34.087Z,98708.00
2023-01-19T04:09:36.768Z,98708.59
2023-01-19T04:12:40.130Z,98687.25
2023-01-19T04:15:42.777Z,98691.16
2023-01-19T04:18:45.259Z,98682.13
2023-01-19T04:21:51.109Z,98722.16
2023-01-19T04:24:53.535Z,98715.38
2023-01-19T04:27:58.359Z,98713.75
2023-01-19T04:31:01.321Z,98704.91
2023-01-19T04:34:04.303Z,98705.72
2023-01-19T04:37:08.540Z,98682.53
2023-01-19T04:40:14.083Z,98700.19
2023-01-19T04:43:17.016Z,98663.66
2023-01-19T04:46:19.720Z,98685.81
2023-01-19T04:49:22.059Z,98683.75
2023-01-19T04:52:24.845Z,98645.59
2023-01-19T04:55:27.145Z,98635.97
2023-01-19T04:58:29.973Z,98646.63
2023-01-19T05:01:32.709Z,98664.88
2023-01-19T05:04:35.354Z,98673.31
2023-01-19T05:07:38.301Z,98675.13
2023-01-19T05:10:41.016Z,98743.69
2023-01-19T05:13:43.307Z,98712.28
2023-01-19T05:16:45.934Z,98734.44
2023-01-19T05:19:49.013Z,98714.53
2023-01-19T05:22:53.354Z,98698.13
2023-01-19T05:25:56.839Z,98754.78
2023-01-19T05:28:59.417Z,98745.75
2023-01-19T05:32:02.000Z,98746.56
2023-01-19T05:35:04.870Z,98760.31
2023-01-19T05:38:07.157Z,98724.19
2023-01-19T05:41:09.851Z,98760.94
2023-01-19T05:44:12.787Z,98760.75
2023-01-19T05:47:15.517Z,98718.25
2023-01-19T05:50:17.965Z,98746.59
2023-01-19T05:53:21.230Z,98736.31
2023-01-19T05:56:23.571Z,98735.50
2023-01-19T05:59:27.282Z,98744.94
2023-01-19T06:02:30.272Z,98729.13
2023-01-19T06:05:32.854Z,98706.97
2023-01-19T06:08:35.233Z,98715.19
2023-01-19T06:11:37.890Z,98679.69
2023-01-19T06:14:40.909Z,98723.59
2023-01-19T06:17:43.621Z,98678.84
2023-01-19T06:20:45.946Z,98664.06
2023-01-19T06:23:48.545Z,98693.00
2023-01-19T06:26:51.127Z,98698.75
2023-01-19T06:29:53.851Z,98695.25
2023-01-19T06:32:56.228Z,98656.69
2023-01-19T06:35:58.898Z,98701.03
2023-01-19T06:39:05.574Z,98716.62
2023-01-19T06:42:13.175Z,98724.62
2023-01-19T06:45:17.031Z,98729.72
2023-01-19T06:48:19.840Z,98704.91
2023-01-19T06:51:23.934Z,98763.59
2023-01-19T06:54:27.263Z,98749.25
2023-01-19T06:57:29.648Z,98697.09
2023-01-19T07:00:32.586Z,98710.44
2023-01-19T07:03:36.780Z,98729.53
2023-01-19T07:06:39.614Z,98737.16
2023-01-19T07:09:41.895Z,98740.81
2023-01-19T07:12:46.558Z,98734.47
2023-01-19T07:15:49.079Z,98688.28
2023-01-19T07:18:51.900Z,98719.06
2023-01-19T07:21:54.230Z,98724.22
2023-01-19T07:24:56.872Z,98745.75
2023-01-19T07:28:00.214Z,98758.50
2023-01-19T07:31:03.875Z,98753.78
2023-01-19T07:34:07.033Z,98758.91
2023-01-19T07:37:10.074Z,98745.78
2023-01-19T07:40:12.691Z,98719.06
2023-01-19T07:43:15.848Z,98751.09
2023-01-19T07:46:18.380Z,98754.78
2023-01-19T07:49:21.404Z,98757.25
2023-01-19T07:52:23.844Z,98756.00
2023-01-19T07:55:26.682Z,98769.16
2023-01-19T07:58:29.116Z,98773.28
2023-01-19T08:01:32.012Z,98749.25
2023-01-19T08:04:34.856Z,98742.69
2023-01-19T08:07:37.178Z,98785.81
2023-01-19T08:10:39.807Z,98745.53
2023-01-19T08:13:43.429Z,98768.56
2023-01-19T08:16:46.065Z,98723.41
2023-01-19T08:19:48.351Z,98744.13
2023-01-19T08:22:51.000Z,98749.44
2023-01-19T08:25:53.907Z,98722.97
2023-01-19T08:28:58.938Z,98719.47
2023-01-19T08:32:03.129Z,98746.97
2023-01-19T08:35:06.613Z,98751.28
2023-01-19T08:38:10.180Z,98766.47
2023-01-19T08:41:12.874Z,98730.53
2023-01-19T08:44:16.066Z,98772.03
2023-01-19T08:47:18.777Z,98767.31
2023-01-19T08:50:22.761Z,98773.66
2023-01-19T08:53:25.591Z,98776.97
2023-01-19T08:56:27.977Z,98792.16
2023-01-19T08:59:30.728Z,98747.81
2023-01-19T09:02:33.134Z,98759.50
2023-01-19T09:05:39.002Z,98735.47
2023-01-19T09:08:41.381Z,98777.75
2023-01-19T09:11:44.064Z,98764.81
2023-01-19T09:14:46.393Z,98769.16
2023-01-19T09:17:49.089Z,98762.75
2023-01-19T09:20:51.492Z,98757.81
2023-01-19T09:23:55.064Z,98745.72
2023-01-19T09:26:57.615Z,98751.66
2023-01-19T09:30:00.255Z,98751.28
2023-01-19T09:33:10.601Z,98772.41
2023-01-19T09:36:13.202Z,98742.22
2023-01-19T09:39:15.592Z,98772.56
2023-01-19T09:42:31.289Z,98740.94
2023-01-19T09:45:46.118Z,98777.09
2023-01-19T09:48:52.996Z,98768.84
2023-01-19T09:51:55.333Z,98767.81
2023-01-19T09:54:59.029Z,98735.19
2023-01-19T09:58:01.656Z,98778.94
2023-01-19T10:01:27.595Z,98787.19
2023-01-19T10:04:40.291Z,98773.00
2023-01-19T10:07:53.483Z,98774.47
2023-01-19T10:10:57.933Z,98784.56
2023-01-19T10:14:00.655Z,98791.97
2023-01-19T10:17:22.732Z,98782.94
2023-01-19T10:21:05.399Z,98790.34
2023-01-19T10:24:28.938Z,98801.22
2023-01-19T10:27:34.282Z,98767.50
2023-01-19T10:30:37.348Z,98794.03
2023-01-19T10:33:39.940Z,98797.72
2023-01-19T10:36:42.864Z,98756.22
2023-01-19T10:40:11.272Z,98771.41
2023-01-19T10:43:36.933Z,98769.97
2023-01-19T10:46:50.411Z,98782.28
2023-01-19T10:49:53.188Z,98823.94
2023-01-19T10:53:00.284Z,98786.91
2023-01-19T10:56:24.546Z,98798.22
2023-01-19T10:59:33.024Z,98825.75
2023-01-19T11:02:35.795Z,98823.22
2023-01-19T11:05:38.603Z,98787.88
2023-01-19T11:08:42.898Z,98824.25
2023-01-19T11:11:51.009Z,98811.09
2023-01-19T11:14:54.237Z,98790.50
2023-01-19T11:17:56.908Z,98833.66
2023-01-19T11:21:21.703Z,98819.91
2023-01-19T11:24:24.211Z,98819.03
2023-01-19T11:27:27.664Z,98817.56
2023-01-19T11:30:30.707Z,98811.22
2023-01-19T11:33:53.342Z,98819.00
2023-01-19T11:37:04.591Z,98824.00
2023-01-19T11:40:09.391Z,98785.94
2023-01-19T11:43:13.702Z,98844.88
2023-01-19T11:46:17.695Z,98797.63
2023-01-19T11:49:31.314Z,98827.72
2023-01-19T11:52:40.788Z,98827.13
2023-01-19T11:55:51.376Z,98838.25
2023-01-19T11:58:54.298Z,98832.31
2023-01-19T12:02:00.716Z,98847.47
2023-01-19T12:05:12.163Z,98845.25
2023-01-19T12:08:19.181Z,98848.91
2023-01-19T12:11:57.077Z,98847.91
2023-01-19T12:15:22.548Z,98856.91
2023-01-19T12:18:30.295Z,98854.84
2023-01-19T12:21:32.630Z,98830.41
2023-01-19T12:24:44.703Z,98878.00
2023-01-19T12:27:48.987Z,98876.44
2023-01-19T12:30:52.941Z,98879.53
2023-01-19T12:33:55.526Z,98893.47
2023-01-19T12:37:03.024Z,98894.91
2023-01-19T12:40:26.127Z,98890.41
2023-01-19T12:43:29.033Z,98894.91
2023-01-19T12:46:32.171Z,98895.31
2023-01-19T12:49:49.475Z,98891.03
2023-01-19T12:52:58.727Z,98876.22
2023-01-19T12:56:10.123Z,98912.00
2023-01-19T12:59:25.451Z,98905.16
2023-01-19T13:02:28.158Z,98911.03
2023-01-19T13:05:32.536Z,98917.25
2023-01-19T13:09:26.845Z,98923.81
2023-01-19T13:12:29.536Z,98934.72
2023-01-19T13:15:36.145Z,98940.91
2023-01-19T13:18:41.749Z,98949.31
2023-01-19T13:21:49.569Z,98924.81
2023-01-19T13:25:07.973Z,98973.31
2023-01-19T13:28:13.963Z,98967.91
2023-01-19T13:31:17.198Z,98981.03
2023-01-19T13:34:23.407Z,98983.34
2023-01-19T13:37:38.955Z,98987.69
2023-01-19T13:40:42.000Z,98956.31
2023-01-19T13:43:45.027Z,98963.50
2023-01-19T13:46:48.947Z,99001.94
2023-01-19T13:49:56.832Z,99014.53
2023-01-19T13:53:00.331Z,99013.50
2023-01-19T13:56:23.313Z,99017.78
2023-01-19T13:59:26.062Z,99016.31
2023-01-19T14:02:28.710Z,99033.78
2023-01-19T14:05:39.650Z,99043.19
2023-01-19T14:08:41.997Z,98991.28
2023-01-19T14:12:05.744Z,99037.12
2023-01-19T14:15:17.030Z,99025.87
2023-01-19T14:18:19.634Z,98988.00
2023-01-19T14:21:22.093Z,99023.00
2023-01-19T14:24:24.750Z,98981.22
2023-01-19T14:27:27.183Z,99003.88
2023-01-19T14:30:30.034Z,99009.97
2023-01-19T14:33:36.609Z,99034.94
2023-01-19T14:36:42.039Z,99048.28
2023-01-19T14:39:56.054Z,99049.66
2023-01-19T14:43:03.236Z,99040.87
2023-01-19T14:46:05.628Z,99047.75
2023-01-19T14:49:19.003Z,99056.31
2023-01-19T14:52:38.835Z,99061.03
2023-01-19T14:55:51.008Z,99083.44
2023-01-19T14:58:54.968Z,99037.28
2023-01-19T15:01:59.724Z,99077.84
2023-01-19T15:05:02.204Z,99088.38
2023-01-19T15:08:05.757Z,99103.72
2023-01-19T15:11:32.210Z,99096.56
2023-01-19T15:14:35.534Z,99136.97
2023-01-19T15:17:37.940Z,99141.50
2023-01-19T15:20:40.824Z,99140.84
2023-01-19T15:23:43.343Z,99096.78
2023-01-19T15:26:46.160Z,99100.28
2023-01-19T15:29:48.499Z,99121.88
2023-01-19T15:32:51.172Z,99091.88
2023-01-19T15:35:54.904Z,99140.91
2023-01-19T15:38:57.580Z,99085.87
2023-01-19T15:42:01.048Z,99120.41
2023-01-19T15:45:23.869Z,99149.84
2023-01-19T15:48:26.205Z,99114.94
2023-01-19T15:51:29.140Z,99148.25
2023-01-19T15:54:31.458Z,99157.97
2023-01-19T15:57:35.177Z,99127.41
2023-01-19T16:00:37.505Z,99170.19
2023-01-19T16:03:40.176Z,99179.19
2023-01-19T16:06:45.130Z,99194.16
2023-01-19T16:09:48.177Z,99181.31
2023-01-19T16:12:50.621Z,99198.28
2023-01-19T16:15:53.256Z,99188.75
2023-01-19T16:18:56.936Z,99209.94
2023-01-19T16:22:02.298Z,99189.12
2023-01-19T16:25:05.426Z,99213.97
2023-01-19T16:28:08.439Z,99207.19
2023-01-19T16:31:10.879Z,99257.41
2023-01-19T16:34:13.725Z,99274.31
2023-01-19T16:37:16.060Z,99224.28
2023-01-19T16:40:20.310Z,99238.25
2023-01-19T16:43:22.651Z,99281.56
2023-01-19T16:46:27.972Z,99262.63
2023-01-19T16:49:30.450Z,99312.25
2023-01-19T16:52:33.124Z,99322.44
2023-01-19T16:55:40.658Z,99320.63
2023-01-19T16:58:43.867Z,99333.88
2023-01-19T17:01:46.380Z,99293.44
2023-01-19T17:04:49.306Z,99332.56
2023-01-19T17:07:51.764Z,99298.56
2023-01-19T17:10:55.669Z,99333.75
2023-01-19T17:14:00.525Z,99346.81
2023-01-19T17:17:04.311Z,99308.59
2023-01-19T17:20:07.263Z,99363.06
2023-01-19T17:23:10.030Z,99362.34
2023-01-19T17:26:12.426Z,99351.50
2023-01-19T17:29:16.459Z,99369.50
2023-01-19T17:32:18.783Z,99375.44
2023-01-19T17:35:21.478Z,99387.47
2023-01-19T17:38:23.728Z,99337.09
2023-01-19T17:41:31.624Z,99362.28
2023-01-19T17:44:34.107Z,99370.47
2023-01-19T17:47:37.747Z,99377.09
2023-01-19T17:50:40.136Z,99378.81
2023-01-19T17:53:42.744Z,99375.91
2023-01-19T17:56:45.115Z,99357.97
2023-01-19T17:59:47.891Z,99349.62
2023-01-19T18:02:51.273Z,99395.53
2023-01-19T18:05:54.904Z,99361.13
2023-01-19T18:08:58.940Z,99354.44
2023-01-19T18:12:01.625Z,99398.53
2023-01-19T18:15:05.754Z,99389.31
2023-01-19T18:18:08.295Z,99386.41
2023-01-19T18:21:12.932Z,99413.75
2023-01-19T18:24:15.637Z,99411.59
2023-01-19T18:27:17.975Z,99366.09
2023-01-19T18:30:21.287Z,99416.06
2023-01-19T18:33:24.142Z,99375.75
2023-01-19T18:36:26.854Z,99411.31
2023-01-19T18:39:32.116Z,99418.41
2023-01-19T18:42:34.958Z,99385.41
2023-01-19T18:45:38.322Z,99416.97
2023-01-19T18:48:41.104Z,99412.13
2023-01-19T18:51:43.468Z,99403.03
2023-01-19T18:54:48.677Z,99411.03
2023-01-19T18:57:51.591Z,99368.06
2023-01-19T19:00:54.373Z,99417.50
2023-01-19T19:03:57.626Z,99418.31
2023-01-19T19:07:00.207Z,99434.91
2023-01-19T19:10:02.798Z,99420.44
2023-01-19T19:13:05.445Z,99437.34
2023-01-19T19:16:09.330Z,99407.31
2023-01-19T19:19:15.356Z,99411.06
2023-01-19T19:22:17.691Z,99454.50
2023-01-19T19:25:20.374Z,99422.13
2023-01-19T19:28:22.704Z,99427.22
2023-01-19T19:31:26.946Z,99426.97
2023-01-19T19:34:30.165Z,99466.06
2023-01-19T19:37:32.812Z,99443.22
2023-01-19T19:40:35.237Z,99476.63
2023-01-19T19:43:38.485Z,99489.06
2023-01-19T19:46:43.880Z,99456.78
2023-01-19T19:49:46.571Z,99511.38
2023-01-19T19:52:49.026Z,99483.19
2023-01-19T19:56:02.376Z,99478.53
2023-01-19T19:59:04.728Z,99500.88
2023-01-19T20:02:11.120Z,99504.06
2023-01-19T20:05:13.746Z,99517.47
2023-01-19T20:08:16.601Z,99486.22
2023-01-19T20:11:22.371Z,99519.88
2023-01-19T20:14:24.837Z,99482.91
2023-01-19T20:17:27.561Z,99530.41
2023-01-19T20:20:30.037Z,99520.28
2023-01-19T20:23:33.641Z,99514.28
2023-01-19T20:26:39.134Z,99506.13
2023-01-19T20:29:41.734Z,99477.47
2023-01-19T20:32:44.418Z,99472.06
2023-01-19T20:35:47.631Z,99476.47
2023-01-19T20:38:51.162Z,99515.16
2023-01-19T20:41:53.968Z,99520.09
2023-01-19T20:44:56.376Z,99513.69
2023-01-19T20:47:59.043Z,99488.13
2023-01-19T20:51:08.020Z,99498.59
2023-01-19T20:54:12.740Z,99547.22
2023-01-19T20:57:15.116Z,99532.75
2023-01-19T21:00:18.090Z,99528.28
2023-01-19T21:03:20.392Z,99525.78
2023-01-19T21:06:23.273Z,99485.81
2023-01-19T21:09:25.603Z,99527.34
2023-01-19T21:12:28.285Z,99536.66
2023-01-19T21:15:30.611Z,99524.69
2023-01-19T21:18:33.426Z,99530.63
2023-01-19T21:21:35.793Z,99486.19
2023-01-19T21:24:38.428Z,99532.66
2023-01-19T21:27:40.791Z,99533.81
2023-01-19T21:30:43.530Z,99548.09
2023-01-19T21:33:45.922Z,99507.13
2023-01-19T21:36:48.663Z,99540.31
2023-01-19T21:39:50.957Z,99544.59
2023-01-19T21:42:53.600Z,99552.06
2023-01-19T21:45:56.021Z,99520.53
2023-01-19T21:49:04.688Z,99529.34
2023-01-19T21:52:07.025Z,99571.22
2023-01-19T21:55:09.829Z,99619.91
2023-01-19T21:58:12.200Z,99658.47
2023-01-19T22:01:15.688Z,99671.09
2023-01-19T22:04:18.457Z,99627.41
2023-01-19T22:07:20.784Z,99602.94
2023-01-19T22:10:23.589Z,99590.13
2023-01-19T22:13:28.087Z,99607.38
2023-01-19T22:16:30.822Z,99591.47
2023-01-19T22:19:33.210Z,99601.03
2023-01-19T22:22:35.797Z,99601.59
2023-01-19T22:25:38.173Z,99581.87
2023-01-19T22:28:41.050Z,99580.31
2023-01-19T22:31:43.463Z,99609.41
2023-01-19T22:34:47.500Z,99570.03
2023-01-19T22:37:49.869Z,99602.53
2023-01-19T22:40:52.490Z,99615.53
2023-01-19T22:43:57.416Z,99575.03
2023-01-19T22:47:00.035Z,99604.91
2023-01-19T22:50:02.319Z,99596.72
2023-01-19T22:53:04.948Z,99592.97
2023-01-19T22:56:19.357Z,99569.56
2023-01-19T22:59:22.054Z,99597.81
2023-01-19T23:02:24.421Z,99583.00
2023-01-19T23:05:27.160Z,99595.47
2023-01-19T23:08:29.473Z,99596.97
2023-01-19T23:11:38.179Z,99584.81
2023-01-19T23:14:40.567Z,99577.34
2023-01-19T23:17:45.533Z,99580.63
2023-01-19T23:20:47.910Z,99563.69
2023-01-19T23:23:57.816Z,99560.69
2023-01-19T23:27:02.242Z,99534.81
2023-01-19T23:30:05.365Z,99557.72
2023-01-19T23:33:07.900Z,99550.03
2023-01-19T23:36:15.334Z,99534.78
2023-01-19T23:39:20.687Z,99570.31
2023-01-19T23:42:23.478Z,99576.78
2023-01-19T23:45:25.793Z,99583.28
2023-01-19T23:48:28.368Z,99603.59
2023-01-19T23:51:32.225Z,99597.94
2023-01-19T23:54:35.005Z,99598.63
2023-01-19T23:57:37.327Z,99599.66
